Terminal Aerodrome Forecast
Issued by NWS Paducah, KY

Home | Current Version | Previous Version | Text Only | Print | Product List | Glossary On
Versions: 1 2 3 4 5 6 7 8 9 10 11 12 13 14 15 16 17 18 19 20 21
000
FTUS43 KPAH 241721
TAFPAH
TAF
KPAH 241721Z 2418/2518 19012G22KT P6SM SCT030 BKN050
     FM250000 16010G18KT P6SM BKN050
     FM250600 16012G22KT P6SM VCTS BKN060CB
     FM250800 17013G23KT 5SM SHRA BR VCTS BKN030CB
     FM251300 16013G23KT 6SM -SHRA BR SCT020 BKN035=

USA.gov is the U.S. government's official web portal to all federal, state and local government web resources and services.